createdAt,value
2023-12-15T00:00:03.262Z,13.70
2023-12-15T00:03:24.330Z,14.20
2023-12-15T00:06:32.714Z,14.50
2023-12-15T00:09:36.484Z,13.97
2023-12-15T00:12:49.993Z,14.63
2023-12-15T00:16:00.909Z,14.80
2023-12-15T00:19:24.447Z,14.68
2023-12-15T00:22:38.140Z,14.73
2023-12-15T00:25:42.087Z,15.20
2023-12-15T00:28:49.648Z,16.63
2023-12-15T00:31:59.752Z,16.48
2023-12-15T00:35:13.226Z,16.70
2023-12-15T00:38:23.401Z,16.80
2023-12-15T00:41:31.486Z,15.93
2023-12-15T00:44:53.973Z,16.20
2023-12-15T00:48:10.943Z,16.77
2023-12-15T00:51:36.701Z,16.95
2023-12-15T00:54:58.986Z,16.57
2023-12-15T00:58:19.307Z,16.20
2023-12-15T01:01:41.961Z,15.48
2023-12-15T01:05:05.278Z,16.55
2023-12-15T01:08:25.731Z,16.30
2023-12-15T01:11:49.047Z,16.20
2023-12-15T01:15:11.937Z,15.87
2023-12-15T01:18:28.306Z,15.70
2023-12-15T01:21:45.066Z,16.05
2023-12-15T01:25:18.949Z,16.17
2023-12-15T01:28:40.915Z,15.13
2023-12-15T01:32:04.194Z,16.13
2023-12-15T01:35:27.056Z,15.38
2023-12-15T01:38:47.963Z,15.75
2023-12-15T01:42:11.003Z,15.18
2023-12-15T01:45:32.995Z,16.10
2023-12-15T01:48:55.248Z,15.33
2023-12-15T01:52:18.096Z,16.00
2023-12-15T01:55:40.127Z,16.30
2023-12-15T01:58:56.089Z,16.00
2023-12-15T02:02:16.008Z,17.80
2023-12-15T02:05:42.008Z,16.73
2023-12-15T02:08:56.399Z,17.10
2023-12-15T02:12:16.876Z,16.48
2023-12-15T02:15:42.121Z,16.13
2023-12-15T02:18:52.419Z,15.97
2023-12-15T02:22:16.042Z,16.37
2023-12-15T02:25:39.843Z,15.68
2023-12-15T02:28:43.077Z,14.68
2023-12-15T02:31:47.272Z,14.18
2023-12-15T02:35:04.628Z,13.77
2023-12-15T02:38:09.102Z,15.30
2023-12-15T02:41:31.837Z,14.77
2023-12-15T02:44:44.448Z,14.35
2023-12-15T02:47:48.643Z,13.82
2023-12-15T02:50:55.321Z,12.30
2023-12-15T02:54:05.815Z,13.07
2023-12-15T02:57:09.223Z,12.38
2023-12-15T03:00:23.941Z,12.85
2023-12-15T03:03:48.545Z,12.40
2023-12-15T03:06:51.856Z,12.67
2023-12-15T03:09:54.864Z,12.27
2023-12-15T03:13:05.198Z,11.90
2023-12-15T03:16:12.469Z,10.68
2023-12-15T03:19:19.301Z,10.68
2023-12-15T03:22:23.176Z,10.90
2023-12-15T03:25:34.784Z,10.60
2023-12-15T03:28:59.061Z,11.18
2023-12-15T03:32:15.607Z,11.23
2023-12-15T03:35:32.612Z,10.65
2023-12-15T03:38:53.507Z,9.60
2023-12-15T03:42:16.627Z,11.00
2023-12-15T03:45:40.177Z,11.27
2023-12-15T03:49:00.906Z,10.68
2023-12-15T03:52:19.716Z,11.63
2023-12-15T03:55:42.786Z,11.63
2023-12-15T03:59:04.845Z,11.40
2023-12-15T04:02:27.710Z,12.23
2023-12-15T04:05:47.755Z,12.07
2023-12-15T04:08:51.189Z,12.50
2023-12-15T04:11:58.702Z,12.67
2023-12-15T04:15:09.839Z,13.17
2023-12-15T04:18:25.757Z,11.30
2023-12-15T04:21:49.588Z,12.43
2023-12-15T04:25:15.323Z,11.60
2023-12-15T04:28:28.707Z,10.80
2023-12-15T04:31:44.574Z,11.67
2023-12-15T04:35:11.564Z,11.70
2023-12-15T04:38:21.222Z,11.63
2023-12-15T04:41:44.664Z,11.77
2023-12-15T04:45:18.489Z,10.13
2023-12-15T04:48:47.307Z,11.33
2023-12-15T04:51:50.695Z,10.43
2023-12-15T04:55:13.498Z,10.93
2023-12-15T04:58:38.148Z,11.07
2023-12-15T05:02:15.586Z,10.57
2023-12-15T05:05:44.267Z,11.13
2023-12-15T05:08:58.405Z,11.40
2023-12-15T05:12:09.949Z,10.38
2023-12-15T05:15:21.669Z,10.30
2023-12-15T05:18:32.045Z,10.37
2023-12-15T05:21:42.950Z,10.33
2023-12-15T05:24:58.716Z,9.35
2023-12-15T05:28:05.075Z,9.80
2023-12-15T05:31:10.916Z,9.35
2023-12-15T05:34:17.828Z,9.20
2023-12-15T05:37:50.266Z,9.13
2023-12-15T05:41:00.438Z,9.18
2023-12-15T05:44:10.379Z,8.60
2023-12-15T05:47:30.558Z,8.27
2023-12-15T05:51:01.512Z,8.93
2023-12-15T05:54:29.271Z,9.57
2023-12-15T05:57:52.464Z,9.45
2023-12-15T06:01:12.239Z,9.32
2023-12-15T06:04:36.363Z,8.40
2023-12-15T06:07:53.536Z,9.30
2023-12-15T06:11:07.211Z,8.93
2023-12-15T06:14:33.319Z,8.93
2023-12-15T06:17:53.589Z,8.70
2023-12-15T06:21:29.656Z,8.80
2023-12-15T06:24:43.005Z,8.40
2023-12-15T06:27:54.846Z,8.17
2023-12-15T06:31:13.349Z,7.80
2023-12-15T06:34:30.839Z,7.72
2023-12-15T06:38:11.627Z,8.30
2023-12-15T06:41:20.166Z,8.00
2023-12-15T06:44:40.449Z,7.40
2023-12-15T06:48:10.446Z,7.97
2023-12-15T06:52:25.905Z,6.80
2023-12-15T06:56:23.041Z,6.72
2023-12-15T07:00:29.286Z,6.80
2023-12-15T07:03:48.731Z,7.27
2023-12-15T07:07:05.454Z,6.93
2023-12-15T07:10:19.746Z,7.35
2023-12-15T07:13:34.617Z,6.70
2023-12-15T07:16:40.224Z,6.60
2023-12-15T07:20:00.403Z,6.67
2023-12-15T07:23:17.557Z,6.47
2023-12-15T07:26:33.448Z,6.15
2023-12-15T07:29:53.724Z,5.70
2023-12-15T07:33:11.628Z,5.87
2023-12-15T07:36:22.542Z,6.47
2023-12-15T07:39:50.541Z,5.47
2023-12-15T07:43:14.358Z,5.20
2023-12-15T07:47:09.697Z,6.03
2023-12-15T07:50:39.163Z,6.20
2023-12-15T07:53:53.081Z,5.83
2023-12-15T07:57:15.889Z,5.90
2023-12-15T08:00:22.499Z,5.60
2023-12-15T08:04:11.677Z,5.32
2023-12-15T08:08:02.035Z,5.60
2023-12-15T08:11:16.510Z,5.90
2023-12-15T08:14:29.041Z,5.88
2023-12-15T08:17:40.435Z,5.70
2023-12-15T08:20:58.255Z,6.28
2023-12-15T08:24:22.960Z,6.13
2023-12-15T08:27:43.509Z,5.73
2023-12-15T08:31:11.795Z,5.40
2023-12-15T08:34:39.265Z,6.65
2023-12-15T08:37:51.537Z,6.40
2023-12-15T08:40:57.589Z,5.30
2023-12-15T08:44:19.298Z,5.83
2023-12-15T08:47:39.539Z,6.40
2023-12-15T08:51:11.294Z,5.57
2023-12-15T08:54:51.165Z,5.47
2023-12-15T08:58:32.368Z,6.30
2023-12-15T09:01:42.834Z,6.20
2023-12-15T09:04:59.649Z,6.53
2023-12-15T09:08:09.802Z,6.05
2023-12-15T09:11:24.465Z,5.60
2023-12-15T09:14:32.091Z,5.63
2023-12-15T09:17:53.915Z,6.57
2023-12-15T09:21:02.166Z,5.40
2023-12-15T09:24:16.175Z,6.13
2023-12-15T09:27:32.150Z,6.53
2023-12-15T09:30:39.885Z,6.10
2023-12-15T09:33:54.599Z,6.03
2023-12-15T09:37:18.062Z,6.05
2023-12-15T09:41:13.651Z,6.60
2023-12-15T09:45:03.836Z,6.47
2023-12-15T09:48:19.605Z,5.93
2023-12-15T09:51:31.740Z,6.23
2023-12-15T09:54:39.862Z,6.90
2023-12-15T09:58:07.274Z,8.52
2023-12-15T10:01:26.889Z,6.53
2023-12-15T10:04:52.253Z,6.30
2023-12-15T10:11:50.443Z,7.10
2023-12-15T10:15:03.434Z,5.70
2023-12-15T10:18:19.289Z,6.40
2023-12-15T10:21:37.928Z,6.47
2023-12-15T10:24:45.731Z,5.93
2023-12-15T10:27:53.541Z,6.35
2023-12-15T10:31:14.934Z,7.57
2023-12-15T10:34:59.872Z,6.07
2023-12-15T10:38:26.699Z,6.53
2023-12-15T10:42:54.170Z,6.20
2023-12-15T10:46:25.826Z,6.00
2023-12-15T10:49:40.703Z,5.90
2023-12-15T10:53:13.172Z,7.07
2023-12-15T10:56:50.268Z,6.07
2023-12-15T11:00:16.470Z,5.90
2023-12-15T11:03:27.566Z,5.95
2023-12-15T11:06:44.797Z,5.78
2023-12-15T11:10:04.754Z,5.93
2023-12-15T11:13:54.859Z,6.67
2023-12-15T11:17:10.922Z,5.73
2023-12-15T13:39:38.917Z,5.57
2023-12-15T13:43:47.016Z,5.37
2023-12-15T13:46:55.518Z,5.28
2023-12-15T13:50:07.479Z,5.15
2023-12-15T13:53:41.379Z,7.57
2023-12-15T13:57:57.051Z,6.20
2023-12-15T14:02:24.924Z,5.83
2023-12-15T14:06:40.171Z,4.50
2023-12-15T14:09:59.054Z,4.20
2023-12-15T14:13:06.939Z,5.47
2023-12-15T14:16:40.938Z,4.50
2023-12-15T14:19:51.606Z,4.73
2023-12-15T14:23:09.058Z,4.53
2023-12-15T14:26:47.880Z,3.80
2023-12-15T14:30:16.991Z,4.78
2023-12-15T14:33:27.060Z,4.33
2023-12-15T14:36:45.069Z,4.33
2023-12-15T14:39:49.736Z,4.72
2023-12-15T14:42:59.968Z,4.60
2023-12-15T14:46:07.569Z,4.55
2023-12-15T14:49:14.210Z,4.00
2023-12-15T14:52:30.782Z,4.17
2023-12-15T14:55:53.937Z,4.25
2023-12-15T14:59:25.872Z,3.97
2023-12-15T15:02:37.252Z,4.13
2023-12-15T15:05:45.279Z,4.20
2023-12-15T15:09:17.878Z,4.43
2023-12-15T15:12:42.745Z,3.97
2023-12-15T15:16:17.627Z,3.88
2023-12-15T15:19:21.185Z,3.90
2023-12-15T15:22:43.894Z,4.07
2023-12-15T15:25:47.929Z,3.00
2023-12-15T15:28:57.923Z,2.83
2023-12-15T15:32:04.764Z,2.80
2023-12-15T15:35:18.242Z,2.72
2023-12-15T15:38:24.802Z,4.20
2023-12-15T15:41:39.949Z,4.90
2023-12-15T15:44:43.051Z,4.47
2023-12-15T15:51:37.970Z,4.15
2023-12-15T15:55:00.960Z,4.07
2023-12-15T15:58:17.798Z,3.90
2023-12-15T16:01:43.900Z,4.47
2023-12-15T16:05:15.726Z,4.57
2023-12-15T16:08:40.067Z,5.28
2023-12-15T16:11:58.622Z,4.80
2023-12-15T16:15:22.788Z,4.40
2023-12-15T16:18:46.970Z,4.03
2023-12-15T16:22:09.850Z,5.05
2023-12-15T16:25:31.994Z,4.57
2023-12-15T16:28:52.228Z,4.57
2023-12-15T16:32:15.838Z,5.30
2023-12-15T16:35:35.918Z,5.70
2023-12-15T16:38:59.641Z,5.55
2023-12-15T16:42:21.035Z,5.13
2023-12-15T16:45:43.729Z,5.20
2023-12-15T16:49:05.861Z,5.40
2023-12-15T16:52:28.728Z,5.38
2023-12-15T16:55:55.060Z,4.93
2023-12-15T16:59:14.774Z,4.60
2023-12-15T17:02:37.704Z,4.57
2023-12-15T17:06:07.660Z,4.83
2023-12-15T17:09:21.010Z,4.95
2023-12-15T17:12:43.777Z,5.50
2023-12-15T17:16:03.841Z,5.30
2023-12-15T17:19:20.017Z,4.40
2023-12-15T17:22:39.647Z,4.07
2023-12-15T17:26:08.660Z,4.68
2023-12-15T17:29:39.661Z,4.90
2023-12-15T17:32:57.727Z,4.80
2023-12-15T17:36:11.996Z,4.57
2023-12-15T17:39:32.665Z,5.27
2023-12-15T17:42:36.090Z,4.13
2023-12-15T17:45:44.283Z,4.18
2023-12-15T17:49:01.617Z,4.03
2023-12-15T17:52:31.473Z,2.93
2023-12-15T17:55:47.560Z,3.20
2023-12-15T17:59:12.981Z,3.03
2023-12-15T18:02:32.727Z,3.10
2023-12-15T18:05:54.536Z,2.88
2023-12-15T18:09:12.183Z,2.67
2023-12-15T18:12:36.689Z,3.37
2023-12-15T18:16:00.619Z,3.30
2023-12-15T18:19:22.513Z,3.53
2023-12-15T18:22:42.264Z,3.50
2023-12-15T18:25:58.479Z,3.63
2023-12-15T18:29:23.557Z,4.10
2023-12-15T18:32:46.459Z,3.85
2023-12-15T18:36:07.536Z,3.90
2023-12-15T18:39:31.369Z,4.25
2023-12-15T18:42:53.542Z,3.90
2023-12-15T18:45:57.153Z,3.77
2023-12-15T18:49:01.485Z,4.00
2023-12-15T18:52:20.141Z,5.40
2023-12-15T18:55:30.194Z,5.90
2023-12-15T18:58:46.935Z,4.50
2023-12-15T19:02:03.668Z,4.60
2023-12-15T19:05:19.982Z,3.88
2023-12-15T19:08:50.449Z,3.72
2023-12-15T19:12:12.966Z,4.20
2023-12-15T19:15:36.293Z,4.17
2023-12-15T19:19:03.243Z,4.07
2023-12-15T19:22:22.250Z,3.78
2023-12-15T19:25:47.195Z,4.05
2023-12-15T19:29:11.936Z,4.03
2023-12-15T19:32:28.728Z,3.87
2023-12-15T19:35:50.277Z,4.30
2023-12-15T19:39:17.316Z,4.93
2023-12-15T19:42:45.216Z,4.85
2023-12-15T19:46:01.476Z,5.55
2023-12-15T19:49:20.413Z,4.93
2023-12-15T19:52:54.813Z,5.17
2023-12-15T19:56:12.018Z,5.80
2023-12-15T19:59:23.717Z,5.50
2023-12-15T20:02:34.595Z,5.15
2023-12-15T20:05:50.743Z,5.60
2023-12-15T20:09:20.157Z,5.57
2023-12-15T20:12:46.041Z,6.00
2023-12-15T20:15:53.010Z,6.20
2023-12-15T20:19:08.134Z,5.80
2023-12-15T20:22:19.851Z,5.47
2023-12-15T20:25:30.793Z,6.47
2023-12-15T20:28:47.129Z,6.03
2023-12-15T20:32:10.994Z,5.90
2023-12-15T20:35:27.370Z,6.35
2023-12-15T20:38:58.661Z,6.57
2023-12-15T20:42:20.537Z,6.37
2023-12-15T20:45:24.102Z,6.13
2023-12-15T20:48:30.720Z,7.05
2023-12-15T20:51:34.668Z,6.43
2023-12-15T20:55:02.088Z,6.90
2023-12-15T20:58:19.134Z,6.70
2023-12-15T21:01:41.258Z,6.90
2023-12-15T21:05:00.266Z,6.70
2023-12-15T21:08:26.105Z,6.15
2023-12-15T21:11:44.197Z,6.70
2023-12-15T21:15:08.040Z,7.07
2023-12-15T21:18:30.390Z,7.95
2023-12-15T21:21:51.236Z,7.40
2023-12-15T21:25:11.053Z,6.70
2023-12-15T21:28:31.198Z,6.50
2023-12-15T21:31:47.168Z,5.73
2023-12-15T21:35:06.961Z,6.38
2023-12-15T21:38:27.046Z,7.43
2023-12-15T21:41:47.031Z,6.10
2023-12-15T21:45:16.977Z,5.93
2023-12-15T21:48:21.663Z,6.73
2023-12-15T21:51:33.252Z,6.95
2023-12-15T21:54:42.838Z,7.15
2023-12-15T21:57:52.818Z,7.88
2023-12-15T22:01:02.753Z,8.50
2023-12-15T22:04:28.911Z,8.13
2023-12-15T22:08:04.808Z,8.63
2023-12-15T22:11:31.413Z,7.70
2023-12-15T22:14:52.677Z,7.60
2023-12-15T22:18:12.665Z,8.00
2023-12-15T22:21:29.593Z,7.63
2023-12-15T22:24:48.186Z,8.38
2023-12-15T22:28:05.521Z,7.80
2023-12-15T22:31:09.790Z,7.65
2023-12-15T22:34:21.520Z,7.83
2023-12-15T22:37:33.409Z,7.87
2023-12-15T22:40:39.801Z,7.25
2023-12-15T22:43:53.062Z,7.47
2023-12-15T22:47:04.511Z,7.20
2023-12-15T22:50:08.677Z,7.17
2023-12-15T22:53:31.810Z,7.90
2023-12-15T22:56:51.833Z,8.38
2023-12-15T23:00:16.681Z,8.70
2023-12-15T23:03:37.703Z,9.40
2023-12-15T23:07:01.894Z,8.53
2023-12-15T23:10:16.961Z,9.50
2023-12-15T23:13:38.689Z,9.18
2023-12-15T23:16:42.168Z,8.23
2023-12-15T23:19:59.837Z,7.43
2023-12-15T23:23:04.635Z,7.63
2023-12-15T23:26:15.374Z,7.67
2023-12-15T23:29:39.256Z,7.40
2023-12-15T23:32:49.568Z,6.35
2023-12-15T23:35:53.822Z,7.93
2023-12-15T23:39:04.850Z,7.90
2023-12-15T23:42:20.973Z,7.63
2023-12-15T23:45:39.281Z,7.95
2023-12-15T23:48:49.385Z,6.93
2023-12-15T23:51:53.584Z,6.45
2023-12-15T23:55:03.236Z,6.47
2023-12-15T23:58:23.874Z,5.83
